Terminal Aerodrome Forecast
Issued by NWS Jackson, KY

Home | Current Version | Previous Version | Text Only | Print | Product List | Glossary On
Versions: 1 2 3 4 5 6 7 8 9 10 11 12 13 14
104
FTUS43 KJKL 010520
TAFLOZ
TAF
KLOZ 010520Z 0106/0206 26006KT P6SM SCT025 SCT040
     FM011500 26010G17KT P6SM SCT035
     FM020000 25004KT P6SM SCT200=

USA.gov is the U.S. government's official web portal to all federal, state and local government web resources and services.